Time;durP1;ratioP1;P1;durP2;ratioP2;P2;SDS_P1;SDS_P2;PMS_P1;PMS_P2;Temp;Humidity;BMP_temperature;BMP_pressure;BME280_temperature;BME280_humidity;BME280_pressure;Samples;Min_cycle;Max_cycle;Signal;HPM_P1;HPM_P2
2023/10/04 00:01:51;;;;;;;5.75;2.20;;;26.10;99.90;;;;;;5068218;28;20566;-78
2023/10/04 00:04:22;;;;;;;6.13;2.40;;;26.50;99.90;;;;;;5072534;28;20197;-78
2023/10/04 00:06:53;;;;;;;8.48;2.47;;;26.80;99.90;;;;;;5076711;28;20199;-81
2023/10/04 00:09:24;;;;;;;7.38;2.80;;;27.20;99.90;;;;;;5069527;28;20200;-79
2023/10/04 00:11:54;;;;;;;5.47;2.40;;;27.30;99.90;;;;;;5068014;28;20662;-79
2023/10/04 00:14:27;;;;;;;8.85;2.60;;;27.40;99.90;;;;;;5066748;28;20193;-80
2023/10/04 00:16:59;;;;;;;4.75;2.45;;;27.60;99.90;;;;;;5063561;28;20201;-80
2023/10/04 00:19:32;;;;;;;5.80;2.50;;;27.70;99.90;;;;;;5068480;28;20196;-86
2023/10/04 00:22:03;;;;;;;4.63;2.28;;;27.70;99.90;;;;;;5070526;28;20201;-80
2023/10/04 00:24:34;;;;;;;5.18;2.47;;;27.50;99.90;;;;;;5069298;28;20293;-81
2023/10/04 00:27:05;;;;;;;9.70;3.03;;;27.50;99.90;;;;;;5071943;28;20212;-81
2023/10/04 00:29:38;;;;;;;4.28;2.10;;;27.50;99.90;;;;;;5072745;28;20197;-83
2023/10/04 00:32:09;;;;;;;7.20;2.33;;;27.60;99.90;;;;;;5072252;28;20197;-77
2023/10/04 00:34:40;;;;;;;5.82;2.20;;;27.80;99.90;;;;;;5070949;28;20661;-78
2023/10/04 00:37:11;;;;;;;5.32;2.17;;;28.10;99.90;;;;;;5069795;28;20209;-80
2023/10/04 00:39:42;;;;;;;6.32;2.45;;;28.30;99.90;;;;;;5069044;28;20193;-79
2023/10/04 00:42:13;;;;;;;5.82;2.13;;;28.40;99.90;;;;;;5067860;28;20617;-81
2023/10/04 00:44:47;;;;;;;4.95;2.10;;;28.30;99.90;;;;;;5069034;28;20567;-79
2023/10/04 00:47:18;;;;;;;8.27;2.50;;;28.20;99.90;;;;;;5071111;28;20196;-75
2023/10/04 00:49:52;;;;;;;6.22;2.50;;;28.00;99.90;;;;;;5076645;28;20220;-80
2023/10/04 00:52:22;;;;;;;7.15;2.75;;;27.80;99.90;;;;;;5086641;28;20207;-77
2023/10/04 00:54:55;;;;;;;6.20;2.13;;;27.70;99.90;;;;;;5081833;28;20199;-79
2023/10/04 00:57:26;;;;;;;9.90;2.80;;;27.90;99.90;;;;;;5071839;28;20198;-79
2023/10/04 00:59:59;;;;;;;9.43;2.80;;;28.20;99.90;;;;;;5070764;28;20562;-81
2023/10/04 01:02:33;;;;;;;7.38;2.38;;;28.20;99.90;;;;;;5074786;28;20207;-80
2023/10/04 01:05:06;;;;;;;5.53;2.20;;;28.20;99.90;;;;;;5087499;28;20223;-78
2023/10/04 01:07:39;;;;;;;5.97;2.20;;;28.00;99.90;;;;;;5085732;28;20193;-79
2023/10/04 01:10:15;;;;;;;5.15;2.30;;;27.90;99.90;;;;;;5078302;28;20843;-78
2023/10/04 01:12:46;;;;;;;5.78;2.40;;;27.80;99.90;;;;;;5075457;28;20196;-73
2023/10/04 01:15:30;;;;;;;8.15;2.28;;;27.60;99.90;;;;;;5072364;28;20193;-76
2023/10/04 01:18:01;;;;;;;7.80;2.80;;;27.40;99.90;;;;;;5070886;28;20197;-75
2023/10/04 01:20:33;;;;;;;5.60;2.33;;;27.30;99.90;;;;;;5067089;28;20193;-79
2023/10/04 01:23:09;;;;;;;9.73;2.40;;;27.20;99.90;;;;;;5073745;28;20232;-76
2023/10/04 01:25:41;;;;;;;4.88;2.10;;;27.10;99.90;;;;;;5070602;28;20257;-79
2023/10/04 01:28:14;;;;;;;7.00;2.45;;;27.20;99.90;;;;;;5086019;28;20196;-73
2023/10/04 01:30:45;;;;;;;4.95;2.10;;;27.40;99.90;;;;;;5069312;28;20205;-73
2023/10/04 01:33:18;;;;;;;6.60;2.40;;;27.70;99.90;;;;;;5073133;28;20316;-72
2023/10/04 01:35:49;;;;;;;5.43;2.42;;;27.80;99.90;;;;;;5068017;28;20221;-80
2023/10/04 01:38:25;;;;;;;8.38;2.83;;;27.80;99.90;;;;;;5067352;28;20193;-80
2023/10/04 01:40:56;;;;;;;4.72;2.53;;;27.90;99.90;;;;;;5075949;28;20191;-76
2023/10/04 01:43:28;;;;;;;8.70;2.42;;;27.90;99.90;;;;;;5073817;28;20266;-76
2023/10/04 01:45:59;;;;;;;6.07;2.55;;;27.90;99.90;;;;;;5073885;28;20723;-79
2023/10/04 01:48:30;;;;;;;8.55;2.78;;;27.80;99.90;;;;;;5086597;28;20275;-77
2023/10/04 01:51:05;;;;;;;7.38;2.80;;;27.80;99.90;;;;;;5086305;28;20224;-76
2023/10/04 01:53:38;;;;;;;5.05;2.42;;;27.80;99.90;;;;;;5080172;28;20188;-81
2023/10/04 01:56:09;;;;;;;7.60;2.38;;;27.80;99.90;;;;;;5089876;28;20195;-78
2023/10/04 01:58:40;;;;;;;5.63;2.53;;;27.90;99.90;;;;;;5085716;28;20200;-81
2023/10/04 02:01:11;;;;;;;9.80;3.28;;;27.90;99.90;;;;;;5086288;28;20208;-74
2023/10/04 02:03:42;;;;;;;5.78;2.45;;;27.80;99.90;;;;;;5072518;28;20633;-76
2023/10/04 02:06:15;;;;;;;11.68;2.58;;;27.60;99.90;;;;;;5065446;28;20201;-76
2023/10/04 02:08:47;;;;;;;7.38;2.60;;;27.40;99.90;;;;;;5072131;28;20283;-74
2023/10/04 02:11:21;;;;;;;4.35;2.22;;;27.20;99.90;;;;;;5072604;28;20224;-75
2023/10/04 02:13:52;;;;;;;8.88;2.90;;;27.00;99.90;;;;;;5068714;28;20193;-77
2023/10/04 02:16:23;;;;;;;6.43;2.95;;;27.00;99.90;;;;;;5070235;28;20202;-78
2023/10/04 02:18:54;;;;;;;7.55;2.45;;;26.90;99.90;;;;;;5075285;28;20193;-78
2023/10/04 02:21:26;;;;;;;6.15;2.53;;;27.00;99.90;;;;;;5054277;28;20186;-77
2023/10/04 02:24:02;;;;;;;5.22;2.33;;;27.00;99.90;;;;;;5068346;28;20189;-81
2023/10/04 02:26:35;;;;;;;4.85;2.33;;;27.20;99.90;;;;;;5073852;28;20242;-78
2023/10/04 02:29:09;;;;;;;5.88;2.53;;;27.20;99.90;;;;;;5076969;28;20554;-76
2023/10/04 02:31:40;;;;;;;12.20;3.63;;;27.30;99.90;;;;;;5093719;28;20219;-79
2023/10/04 02:34:12;;;;;;;15.93;3.08;;;27.30;99.90;;;;;;5081696;28;20243;-79
2023/10/04 02:36:44;;;;;;;8.57;2.30;;;27.30;99.90;;;;;;5076328;28;20247;-75
2023/10/04 02:39:27;;;;;;;7.68;2.67;;;27.30;99.90;;;;;;5080989;28;20227;-76
2023/10/04 02:41:59;;;;;;;6.55;2.33;;;27.20;99.90;;;;;;5074964;28;20637;-79
2023/10/04 02:44:30;;;;;;;6.38;2.70;;;27.10;99.90;;;;;;5077760;28;20230;-80
2023/10/04 02:47:06;;;;;;;7.88;2.53;;;26.90;99.90;;;;;;5076588;28;20203;-77
2023/10/04 02:49:38;;;;;;;9.13;2.60;;;26.80;99.90;;;;;;5079886;28;20270;-79
2023/10/04 02:52:12;;;;;;;10.75;2.60;;;26.70;99.90;;;;;;5080918;28;20262;-75
2023/10/04 02:54:46;;;;;;;6.40;2.40;;;26.70;99.90;;;;;;5081775;28;20205;-79
2023/10/04 02:57:30;;;;;;;4.20;2.10;;;26.70;99.90;;;;;;5073058;28;20216;-83
2023/10/04 03:02:49;;;;;;;7.32;2.30;;;26.60;99.90;;;;;;5069175;28;20606;-82
2023/10/04 03:05:20;;;;;;;6.22;2.45;;;26.40;99.90;;;;;;5066967;28;20213;-74
2023/10/04 03:07:52;;;;;;;9.52;2.42;;;26.50;99.90;;;;;;5065872;28;20193;-78
2023/10/04 03:10:27;;;;;;;7.35;2.33;;;26.40;99.90;;;;;;5066545;28;20206;-77
2023/10/04 03:13:02;;;;;;;5.25;2.25;;;26.40;99.90;;;;;;5070531;28;20224;-79
2023/10/04 03:15:36;;;;;;;5.07;2.28;;;26.30;99.90;;;;;;5070660;28;20200;-80
2023/10/04 03:18:13;;;;;;;7.82;2.50;;;26.30;99.90;;;;;;5069480;28;20207;-80
2023/10/04 03:20:54;;;;;;;5.63;2.13;;;26.20;99.90;;;;;;5074057;28;20212;-86
2023/10/04 03:23:27;;;;;;;7.55;2.50;;;26.30;99.90;;;;;;5077762;28;20192;-79
2023/10/04 03:26:02;;;;;;;7.35;2.63;;;26.40;99.90;;;;;;5071273;28;20199;-78
2023/10/04 03:31:20;;;;;;;8.00;2.38;;;26.50;99.90;;;;;;5072402;28;20238;-80
2023/10/04 03:33:53;;;;;;;10.02;2.33;;;26.50;99.90;;;;;;5072443;28;20232;-81
2023/10/04 03:36:25;;;;;;;5.50;2.05;;;26.50;99.90;;;;;;5073927;28;20208;-77
2023/10/04 03:47:20;;;;;;;7.60;2.10;;;26.40;99.90;;;;;;5076209;28;20701;-83
2023/10/04 03:49:51;;;;;;;7.70;2.50;;;26.30;99.90;;;;;;5076270;28;20227;-83
2023/10/04 03:52:23;;;;;;;4.63;1.75;;;26.20;99.90;;;;;;5075244;28;20647;-88
2023/10/04 03:54:54;;;;;;;5.53;1.83;;;26.10;99.90;;;;;;5072009;28;20211;-85
2023/10/04 03:57:28;;;;;;;6.50;2.33;;;26.10;99.90;;;;;;5076213;28;20193;-85
2023/10/04 04:00:05;;;;;;;6.13;2.13;;;26.00;99.90;;;;;;5090926;28;20218;-83
2023/10/04 04:02:37;;;;;;;6.03;1.95;;;26.00;99.90;;;;;;5079751;28;20204;-81
2023/10/04 04:05:11;;;;;;;7.60;2.20;;;25.90;99.90;;;;;;5058661;28;20193;-82
2023/10/04 04:10:29;;;;;;;18.60;2.80;;;25.90;99.90;;;;;;5076119;28;20189;-84
2023/10/04 04:13:02;;;;;;;5.22;2.20;;;25.90;99.90;;;;;;5076213;28;20665;-84
2023/10/04 04:15:35;;;;;;;6.68;2.10;;;25.90;99.90;;;;;;5076803;28;20212;-84
2023/10/04 04:18:06;;;;;;;9.60;2.50;;;25.90;99.90;;;;;;5072725;28;20193;-87
2023/10/04 04:20:40;;;;;;;4.43;1.88;;;26.00;99.90;;;;;;5077759;28;20189;-84
2023/10/04 04:23:12;;;;;;;6.88;2.25;;;26.00;99.90;;;;;;5074030;28;20204;-88
2023/10/04 04:25:43;;;;;;;5.40;2.10;;;26.00;99.90;;;;;;5074720;28;20201;-89
2023/10/04 04:28:18;;;;;;;7.45;2.28;;;26.00;99.90;;;;;;5075138;28;20262;-80
2023/10/04 04:30:50;;;;;;;6.63;2.00;;;26.00;99.90;;;;;;5076069;28;20195;-83
2023/10/04 04:33:26;;;;;;;3.70;1.65;;;26.00;99.90;;;;;;5075625;28;20659;-74
2023/10/04 04:36:04;;;;;;;6.32;1.90;;;25.90;99.90;;;;;;5074396;28;20199;-77
2023/10/04 04:38:38;;;;;;;4.90;1.83;;;25.90;99.90;;;;;;5075029;28;20217;-75
2023/10/04 04:41:12;;;;;;;7.53;2.00;;;25.80;99.90;;;;;;5075358;28;20649;-75
2023/10/04 04:43:45;;;;;;;7.15;1.90;;;25.70;99.90;;;;;;5075394;28;20288;-78
2023/10/04 04:46:16;;;;;;;6.15;2.05;;;25.70;99.90;;;;;;5073022;28;20552;-75
2023/10/04 04:48:47;;;;;;;7.22;2.40;;;25.60;99.90;;;;;;5074788;28;20282;-74
2023/10/04 04:51:19;;;;;;;6.10;1.98;;;25.60;99.90;;;;;;5074964;28;20213;-82
2023/10/04 04:53:49;;;;;;;6.90;1.85;;;25.60;99.90;;;;;;5075017;28;20185;-79
2023/10/04 04:56:23;;;;;;;4.93;1.80;;;25.50;99.90;;;;;;5092864;28;20646;-83
2023/10/04 04:58:56;;;;;;;6.22;1.90;;;25.50;99.90;;;;;;5086879;28;20216;-80
2023/10/04 05:01:33;;;;;;;4.45;1.67;;;25.50;99.90;;;;;;5074964;28;20193;-75
2023/10/04 05:04:07;;;;;;;7.72;2.10;;;25.40;99.90;;;;;;5074894;28;20188;-79
2023/10/04 05:06:38;;;;;;;7.97;2.05;;;25.40;99.90;;;;;;5074467;28;20196;-76
2023/10/04 05:09:10;;;;;;;5.18;2.45;;;25.30;99.90;;;;;;5075593;28;20200;-87
2023/10/04 05:11:41;;;;;;;5.85;1.92;;;25.20;99.90;;;;;;5075008;28;20204;-80
2023/10/04 05:14:14;;;;;;;6.63;1.92;;;24.90;99.90;;;;;;5074535;28;20185;-75
2023/10/04 05:16:45;;;;;;;5.85;1.80;;;24.50;99.90;;;;;;5094093;28;20280;-79
2023/10/04 05:19:15;;;;;;;5.45;1.90;;;24.20;99.90;;;;;;5074366;28;20200;-76
2023/10/04 05:21:46;;;;;;;4.70;1.88;;;24.00;99.90;;;;;;5072398;28;20204;-83
2023/10/04 05:24:19;;;;;;;7.47;1.88;;;23.90;99.90;;;;;;5063214;28;20211;-89
2023/10/04 05:26:50;;;;;;;6.68;2.00;;;23.70;99.90;;;;;;5068789;28;20193;-85
2023/10/04 05:29:22;;;;;;;13.32;3.38;;;23.60;99.90;;;;;;5070401;28;20811;-76
2023/10/04 05:31:53;;;;;;;17.65;4.50;;;23.50;99.90;;;;;;5076247;28;20220;-79
2023/10/04 05:34:24;;;;;;;14.98;3.88;;;23.30;99.90;;;;;;5068206;28;20768;-85
2023/10/04 05:36:55;;;;;;;12.80;4.30;;;23.10;99.90;;;;;;5072378;28;20559;-81
2023/10/04 05:39:26;;;;;;;12.90;3.53;;;23.00;99.90;;;;;;5069580;28;20609;-82
2023/10/04 05:41:57;;;;;;;14.93;3.50;;;23.00;99.90;;;;;;5069807;28;20208;-80
2023/10/04 05:44:29;;;;;;;16.23;4.20;;;22.90;99.90;;;;;;5071254;28;20188;-76
2023/10/04 05:47:00;;;;;;;12.85;4.00;;;22.80;99.90;;;;;;5071094;28;20197;-77
2023/10/04 05:49:31;;;;;;;13.02;3.65;;;22.70;99.90;;;;;;5069706;28;20216;-75
2023/10/04 05:52:02;;;;;;;16.02;4.30;;;22.60;99.90;;;;;;5069033;28;20586;-77
2023/10/04 05:54:33;;;;;;;15.10;4.40;;;22.60;99.90;;;;;;5072955;28;20192;-75
2023/10/04 05:57:03;;;;;;;13.15;3.80;;;22.50;99.90;;;;;;5072326;28;20574;-78
2023/10/04 05:59:36;;;;;;;11.93;4.10;;;22.50;99.90;;;;;;5071282;28;20612;-79
2023/10/04 06:02:07;;;;;;;17.67;4.03;;;22.60;99.90;;;;;;5072330;28;20193;-77
2023/10/04 06:04:39;;;;;;;20.27;4.53;;;22.50;99.90;;;;;;5073471;28;20279;-80
2023/10/04 06:07:10;;;;;;;17.30;3.63;;;22.40;99.90;;;;;;5069125;28;20193;-76
2023/10/04 06:09:42;;;;;;;17.50;3.95;;;22.20;99.90;;;;;;5069144;28;20199;-81
2023/10/04 06:12:13;;;;;;;13.55;3.65;;;22.20;99.90;;;;;;5069025;28;20715;-79
2023/10/04 06:14:45;;;;;;;17.27;4.10;;;22.10;99.90;;;;;;5071825;28;20594;-80
2023/10/04 06:17:16;;;;;;;16.88;3.90;;;22.00;99.90;;;;;;5070966;28;20201;-80
2023/10/04 06:19:47;;;;;;;21.63;4.88;;;22.00;99.90;;;;;;5066713;28;20193;-78
2023/10/04 06:22:18;;;;;;;19.55;3.92;;;22.00;99.90;;;;;;5071939;28;20699;-78
2023/10/04 06:24:49;;;;;;;16.85;4.32;;;21.90;99.90;;;;;;5072098;28;20196;-79
2023/10/04 06:27:20;;;;;;;22.98;4.22;;;21.80;99.90;;;;;;5072998;28;20220;-81
2023/10/04 06:29:53;;;;;;;24.80;4.07;;;21.80;99.90;;;;;;5068281;28;20193;-75
2023/10/04 06:32:24;;;;;;;22.80;4.57;;;21.80;99.90;;;;;;5067960;28;20241;-76
2023/10/04 06:34:54;;;;;;;23.17;3.80;;;21.70;99.90;;;;;;5071098;28;20287;-76
2023/10/04 06:37:25;;;;;;;23.73;4.15;;;21.70;99.90;;;;;;5070102;28;20656;-76
2023/10/04 06:39:56;;;;;;;23.00;4.65;;;21.70;99.90;;;;;;5060070;28;20589;-76
2023/10/04 06:42:27;;;;;;;18.00;3.47;;;21.70;99.90;;;;;;5053221;28;20190;-77
2023/10/04 06:44:59;;;;;;;17.20;3.65;;;21.70;99.90;;;;;;5060382;28;20276;-75
2023/10/04 06:47:33;;;;;;;25.02;3.97;;;21.70;99.90;;;;;;5070463;28;20189;-78
2023/10/04 06:50:06;;;;;;;21.95;3.90;;;21.70;99.90;;;;;;5068131;28;20201;-77
2023/10/04 06:52:38;;;;;;;26.15;4.03;;;21.70;99.90;;;;;;5069065;28;20216;-77
2023/10/04 06:55:10;;;;;;;17.80;3.70;;;21.70;99.90;;;;;;5072513;28;20667;-77
2023/10/04 06:57:44;;;;;;;27.98;4.28;;;21.70;99.90;;;;;;5069491;28;20196;-78
2023/10/04 07:00:18;;;;;;;26.77;4.57;;;21.60;99.90;;;;;;5064214;28;20204;-80
2023/10/04 07:02:53;;;;;;;22.77;4.50;;;21.60;99.90;;;;;;5069770;28;20192;-78
2023/10/04 07:05:25;;;;;;;26.70;4.95;;;21.60;99.90;;;;;;5070130;28;20193;-79
2023/10/04 07:07:56;;;;;;;30.77;4.70;;;21.60;99.90;;;;;;5071614;28;20276;-78
2023/10/04 07:10:28;;;;;;;23.77;4.43;;;21.60;99.90;;;;;;5069714;28;20197;-78
2023/10/04 07:13:01;;;;;;;27.23;4.53;;;21.60;99.90;;;;;;5069799;28;20224;-78
2023/10/04 07:15:35;;;;;;;22.15;4.47;;;21.60;99.90;;;;;;5063830;28;20221;-77
2023/10/04 07:18:07;;;;;;;21.00;3.67;;;21.60;99.90;;;;;;5067585;28;20197;-80
2023/10/04 07:20:39;;;;;;;18.13;3.85;;;21.60;99.90;;;;;;5066488;28;20200;-79
2023/10/04 07:23:13;;;;;;;16.77;4.05;;;21.60;99.90;;;;;;5063144;28;20197;-79
2023/10/04 07:25:54;;;;;;;19.40;4.18;;;21.70;99.90;;;;;;5069753;28;20208;-77
2023/10/04 07:28:25;;;;;;;19.48;3.85;;;21.70;99.90;;;;;;5069491;28;20193;-77
2023/10/04 07:30:59;;;;;;;18.30;3.28;;;21.80;99.90;;;;;;5071497;28;20197;-78
2023/10/04 07:33:30;;;;;;;18.20;3.80;;;21.60;99.90;;;;;;5066013;28;20243;-77
2023/10/04 07:36:01;;;;;;;19.15;4.07;;;21.80;99.90;;;;;;5064795;28;20217;-78
2023/10/04 07:38:32;;;;;;;17.38;3.90;;;21.80;99.90;;;;;;5071314;28;20304;-78
2023/10/04 07:41:02;;;;;;;20.45;3.70;;;21.70;99.90;;;;;;5062323;28;20193;-78
2023/10/04 07:43:33;;;;;;;18.88;3.67;;;21.60;99.90;;;;;;5067930;28;20204;-78
2023/10/04 07:46:06;;;;;;;23.98;4.60;;;21.60;99.90;;;;;;5065937;28;20204;-76
2023/10/04 07:48:37;;;;;;;17.40;4.32;;;21.60;99.90;;;;;;5061430;28;20238;-78
2023/10/04 07:51:08;;;;;;;15.60;4.10;;;21.60;99.90;;;;;;5056822;28;20672;-78
2023/10/04 07:53:39;;;;;;;11.40;4.00;;;21.50;99.90;;;;;;5069422;28;20236;-77
2023/10/04 07:56:11;;;;;;;11.35;3.40;;;21.40;99.90;;;;;;5069083;28;20275;-78
2023/10/04 07:58:42;;;;;;;10.90;3.55;;;21.30;99.90;;;;;;5066535;28;20270;-76
2023/10/04 08:01:17;;;;;;;8.02;3.30;;;21.10;99.90;;;;;;5069996;28;20201;-77
2023/10/04 08:03:48;;;;;;;9.73;3.20;;;21.00;99.90;;;;;;5068682;28;20200;-78
2023/10/04 08:06:19;;;;;;;10.88;2.95;;;20.80;99.90;;;;;;5068799;28;20203;-77
2023/10/04 08:08:51;;;;;;;9.77;3.00;;;20.70;99.90;;;;;;5061122;28;20197;-74
2023/10/04 08:11:22;;;;;;;10.63;2.97;;;20.60;99.90;;;;;;5073822;28;20203;-75
2023/10/04 08:13:53;;;;;;;7.38;2.70;;;20.50;99.90;;;;;;5066641;28;20239;-76
2023/10/04 08:16:25;;;;;;;7.03;2.90;;;20.40;99.90;;;;;;5069736;28;20193;-76
2023/10/04 08:19:01;;;;;;;9.13;3.13;;;20.30;99.90;;;;;;5070250;28;20209;-75
2023/10/04 08:21:33;;;;;;;9.90;3.00;;;20.20;99.90;;;;;;5065837;28;20196;-77
2023/10/04 08:24:04;;;;;;;7.93;2.88;;;20.10;99.90;;;;;;5066357;28;20746;-76
2023/10/04 08:26:35;;;;;;;6.75;2.92;;;20.00;99.90;;;;;;5067143;28;20201;-77
2023/10/04 08:29:06;;;;;;;8.15;2.97;;;20.00;99.90;;;;;;5063456;28;20198;-75
2023/10/04 08:31:39;;;;;;;10.48;2.83;;;19.90;99.90;;;;;;5064557;28;20201;-77
2023/10/04 08:34:11;;;;;;;6.38;2.55;;;19.80;99.90;;;;;;5070491;28;20306;-75
2023/10/04 08:36:43;;;;;;;8.65;2.15;;;19.80;99.90;;;;;;5058383;28;20644;-76
2023/10/04 08:39:15;;;;;;;5.05;2.65;;;19.70;99.90;;;;;;5073866;28;20201;-75
2023/10/04 08:41:47;;;;;;;6.50;2.30;;;19.60;99.90;;;;;;5069879;28;20193;-79
2023/10/04 08:44:18;;;;;;;6.43;2.55;;;19.60;99.90;;;;;;5069175;28;20208;-76
2023/10/04 08:46:53;;;;;;;10.13;2.80;;;19.50;99.90;;;;;;5068764;28;20197;-76
2023/10/04 08:49:25;;;;;;;6.18;2.50;;;19.60;99.90;;;;;;5064338;28;20200;-75
2023/10/04 08:52:02;;;;;;;7.82;2.40;;;19.50;99.90;;;;;;5065308;28;20186;-77
2023/10/04 08:54:36;;;;;;;5.82;2.20;;;19.50;99.90;;;;;;5066905;28;20217;-77
2023/10/04 08:57:14;;;;;;;6.68;2.15;;;19.50;99.90;;;;;;5068874;28;20213;-76
2023/10/04 08:59:46;;;;;;;5.68;2.40;;;19.40;99.90;;;;;;5068781;28;20200;-77
2023/10/04 09:02:22;;;;;;;7.43;2.10;;;19.40;99.90;;;;;;5071061;28;20643;-77
2023/10/04 09:04:54;;;;;;;5.07;2.30;;;19.30;99.90;;;;;;5069490;28;20224;-76
2023/10/04 09:07:25;;;;;;;5.75;1.90;;;19.30;99.90;;;;;;5070335;28;20251;-74
2023/10/04 09:09:59;;;;;;;5.55;2.05;;;19.10;99.90;;;;;;5066990;28;20193;-76
2023/10/04 09:12:31;;;;;;;5.43;1.75;;;19.10;99.90;;;;;;5073209;28;20234;-77
2023/10/04 09:15:02;;;;;;;3.42;1.40;;;19.00;99.90;;;;;;5071464;28;20242;-76
2023/10/04 09:17:47;;;;;;;3.97;1.40;;;18.90;99.90;;;;;;5073376;28;20721;-78
2023/10/04 09:20:19;;;;;;;2.35;0.90;;;18.90;99.90;;;;;;5072470;28;20197;-80
2023/10/04 09:22:50;;;;;;;0.70;0.60;;;18.70;99.90;;;;;;5071305;28;20293;-76
2023/10/04 09:25:22;;;;;;;1.00;0.50;;;18.60;99.90;;;;;;5073673;28;20189;-77
2023/10/04 09:27:57;;;;;;;0.45;0.40;;;18.40;99.90;;;;;;5073934;28;20535;-74
2023/10/04 09:30:28;;;;;;;0.47;0.47;;;18.30;99.90;;;;;;5070745;28;20202;-78
2023/10/04 09:33:01;;;;;;;0.85;0.50;;;18.20;99.90;;;;;;5067871;28;20225;-76
2023/10/04 09:35:44;;;;;;;2.28;0.57;;;18.20;99.90;;;;;;5067150;28;20289;-76
2023/10/04 09:38:20;;;;;;;0.35;0.30;;;18.00;99.90;;;;;;5068044;28;20247;-77
2023/10/04 09:40:55;;;;;;;0.38;0.30;;;17.90;99.90;;;;;;5065568;28;20192;-76
2023/10/04 09:43:36;;;;;;;0.50;0.35;;;17.90;99.90;;;;;;5065658;28;20200;-81
2023/10/04 09:46:09;;;;;;;0.75;0.50;;;17.80;99.90;;;;;;5069089;28;20284;-75
2023/10/04 09:48:44;;;;;;;0.80;0.50;;;17.70;99.90;;;;;;5054258;28;20217;-83
2023/10/04 09:51:15;;;;;;;0.80;0.52;;;17.70;99.90;;;;;;5064913;28;20541;-80
2023/10/04 09:53:45;;;;;;;1.20;0.60;;;17.60;99.90;;;;;;5071249;28;20212;-76
2023/10/04 09:56:18;;;;;;;0.88;0.50;;;17.60;99.90;;;;;;5071311;28;20197;-79
2023/10/04 09:58:51;;;;;;;2.58;0.60;;;17.50;99.90;;;;;;5071185;28;20196;-75
2023/10/04 10:01:23;;;;;;;1.45;0.43;;;17.40;99.90;;;;;;5070245;28;20188;-79
2023/10/04 10:04:01;;;;;;;1.38;0.63;;;17.30;99.90;;;;;;5069996;28;20603;-83
2023/10/04 10:06:36;;;;;;;1.25;0.50;;;17.30;99.90;;;;;;5066225;28;20279;-82
2023/10/04 10:09:11;;;;;;;1.13;0.63;;;17.20;99.90;;;;;;5070703;28;20201;-82
2023/10/04 10:11:45;;;;;;;0.88;0.50;;;17.10;99.90;;;;;;5069718;28;20188;-84
2023/10/04 10:14:17;;;;;;;2.58;0.68;;;17.00;99.90;;;;;;5065380;28;20216;-81
2023/10/04 10:16:52;;;;;;;1.70;0.70;;;16.90;99.90;;;;;;5071734;28;20318;-76
2023/10/04 10:19:26;;;;;;;2.63;0.60;;;16.90;99.90;;;;;;5073725;28;20208;-74
2023/10/04 10:22:15;;;;;;;1.80;0.60;;;16.80;99.90;;;;;;5072105;28;20262;-75
2023/10/04 10:25:11;;;;;;;0.60;0.60;;;16.80;99.90;;;;;;5072498;28;20205;-74
2023/10/04 10:27:41;;;;;;;0.73;0.43;;;16.70;99.90;;;;;;5070009;28;20652;-73
2023/10/04 10:30:13;;;;;;;0.50;0.50;;;16.70;99.90;;;;;;5070100;28;20188;-75
2023/10/04 10:32:54;;;;;;;0.52;0.50;;;16.60;99.90;;;;;;5067855;28;20558;-75
2023/10/04 10:36:00;;;;;;;1.38;0.52;;;16.50;99.90;;;;;;5065896;28;20200;-74
2023/10/04 10:38:52;;;;;;;0.65;0.50;;;16.40;99.90;;;;;;5067345;28;20699;-76
2023/10/04 10:42:07;;;;;;;1.10;0.57;;;16.40;99.90;;;;;;5068453;28;20203;-78
2023/10/04 10:44:39;;;;;;;0.85;0.50;;;16.30;99.90;;;;;;5071965;28;20645;-75
2023/10/04 10:47:25;;;;;;;0.80;0.40;;;16.20;99.90;;;;;;5070180;28;20219;-79
2023/10/04 10:50:01;;;;;;;0.47;0.40;;;16.10;99.90;;;;;;5068149;28;20196;-83
2023/10/04 10:52:41;;;;;;;0.60;0.40;;;16.00;99.90;;;;;;5068646;28;20222;-82
2023/10/04 10:55:17;;;;;;;3.15;0.60;;;16.00;99.90;;;;;;5067781;28;20350;-88
2023/10/04 10:57:49;;;;;;;0.47;0.40;;;15.90;99.90;;;;;;5067975;28;20196;-89
2023/10/04 11:00:22;;;;;;;1.42;0.40;;;15.80;99.90;;;;;;5070474;28;20251;-89
2023/10/04 11:02:53;;;;;;;1.45;0.30;;;15.70;99.90;;;;;;5068534;28;20203;-80
2023/10/04 11:05:25;;;;;;;0.88;0.60;;;15.60;99.90;;;;;;5069914;28;20197;-86
2023/10/04 11:07:59;;;;;;;0.60;0.50;;;15.50;99.90;;;;;;5060875;28;20212;-87
2023/10/04 11:10:33;;;;;;;1.50;0.40;;;15.50;99.90;;;;;;5061374;28;20669;-86
2023/10/04 11:13:08;;;;;;;0.77;0.30;;;15.30;99.90;;;;;;5072126;28;20266;-86
2023/10/04 11:15:41;;;;;;;2.33;0.50;;;15.20;99.90;;;;;;5053404;28;20275;-89
2023/10/04 11:18:16;;;;;;;0.93;0.30;;;15.10;99.90;;;;;;5069194;28;20565;-92
2023/10/04 11:20:47;;;;;;;0.65;0.50;;;15.10;99.90;;;;;;5071945;28;20192;-87
2023/10/04 11:23:20;;;;;;;0.38;0.38;;;15.10;99.90;;;;;;5070761;28;20208;-86
2023/10/04 11:25:51;;;;;;;1.58;0.30;;;15.00;99.90;;;;;;5070797;28;20204;-86
2023/10/04 11:28:22;;;;;;;0.70;0.50;;;14.90;99.90;;;;;;5069812;28;20676;-86
2023/10/04 11:30:52;;;;;;;1.58;0.40;;;14.90;99.90;;;;;;5069998;28;20207;-86
2023/10/04 11:33:23;;;;;;;1.95;0.40;;;15.00;99.90;;;;;;5072092;28;20239;-86
2023/10/04 11:35:54;;;;;;;2.17;0.50;;;15.00;99.90;;;;;;5069143;28;20196;-85
2023/10/04 11:38:28;;;;;;;2.88;0.70;;;15.00;99.90;;;;;;5070979;28;20204;-86
2023/10/04 11:40:58;;;;;;;1.17;0.40;;;15.10;99.90;;;;;;5069502;28;20207;-86
2023/10/04 11:43:29;;;;;;;0.85;0.50;;;15.10;99.90;;;;;;5070966;28;20201;-86
2023/10/04 11:46:08;;;;;;;2.83;0.50;;;15.10;99.90;;;;;;5070543;28;20196;-88
2023/10/04 11:48:38;;;;;;;1.00;0.40;;;15.10;99.90;;;;;;5076293;28;20260;-89
2023/10/04 11:51:09;;;;;;;0.55;0.30;;;15.00;99.90;;;;;;5074132;28;20199;-85
2023/10/04 11:53:45;;;;;;;0.88;0.30;;;15.00;99.90;;;;;;5073221;28;20216;-87
2023/10/04 11:56:16;;;;;;;0.95;0.35;;;14.90;99.90;;;;;;5076107;28;20204;-92
2023/10/04 11:58:47;;;;;;;1.02;0.30;;;14.80;99.90;;;;;;5064406;28;20203;-90
2023/10/04 12:01:21;;;;;;;0.30;0.30;;;14.80;99.90;;;;;;5071680;28;20189;-86
2023/10/04 12:03:53;;;;;;;0.50;0.30;;;14.60;99.90;;;;;;5074052;28;20199;-91
2023/10/04 12:06:27;;;;;;;0.20;0.20;;;14.50;99.90;;;;;;5073499;28;20280;-87
2023/10/04 12:08:59;;;;;;;0.52;0.30;;;14.50;99.90;;;;;;5076879;28;20633;-91
2023/10/04 12:11:35;;;;;;;0.50;0.30;;;14.50;99.90;;;;;;5074052;28;20238;-82
2023/10/04 12:14:06;;;;;;;0.40;0.40;;;14.40;99.90;;;;;;5076524;28;20219;-79
2023/10/04 12:16:41;;;;;;;0.38;0.30;;;14.40;99.90;;;;;;5076464;28;20197;-86
2023/10/04 12:19:12;;;;;;;1.25;0.30;;;14.40;99.90;;;;;;5075733;28;20180;-82
2023/10/04 12:21:43;;;;;;;0.77;0.40;;;14.30;99.90;;;;;;5075576;28;20215;-81
2023/10/04 12:24:16;;;;;;;0.47;0.30;;;14.40;99.90;;;;;;5076141;28;20236;-79
2023/10/04 12:26:47;;;;;;;1.08;0.40;;;14.40;99.90;;;;;;5076093;28;20243;-86
2023/10/04 12:29:17;;;;;;;0.55;0.30;;;14.40;99.90;;;;;;5075603;28;20276;-77
2023/10/04 12:31:50;;;;;;;1.00;0.40;;;14.30;99.90;;;;;;5076757;28;20193;-83
2023/10/04 12:34:23;;;;;;;0.30;0.30;;;14.40;99.90;;;;;;5075613;28;20240;-86
2023/10/04 12:36:54;;;;;;;2.03;0.40;;;14.40;99.90;;;;;;5076225;28;20655;-85
2023/10/04 12:39:27;;;;;;;0.90;0.38;;;14.30;99.90;;;;;;5076020;28;20192;-91
2023/10/04 12:41:59;;;;;;;0.47;0.38;;;14.30;99.90;;;;;;5076403;28;20211;-74
2023/10/04 12:44:29;;;;;;;0.50;0.50;;;14.30;99.90;;;;;;5075750;28;20220;-85
2023/10/04 12:47:00;;;;;;;1.63;0.50;;;14.30;99.90;;;;;;5075595;28;20227;-88
2023/10/04 12:49:31;;;;;;;0.47;0.43;;;14.30;99.90;;;;;;5075267;28;20191;-78
2023/10/04 12:52:04;;;;;;;0.40;0.40;;;14.30;99.90;;;;;;5072922;28;20219;-87
2023/10/04 12:54:36;;;;;;;0.93;0.45;;;14.30;99.90;;;;;;5075347;28;20618;-80
2023/10/04 12:57:07;;;;;;;0.40;0.30;;;14.20;99.90;;;;;;5071701;28;20564;-80
2023/10/04 12:59:38;;;;;;;0.60;0.47;;;14.30;99.90;;;;;;5075548;28;20189;-85
2023/10/04 13:02:09;;;;;;;0.65;0.40;;;14.30;99.90;;;;;;5075068;28;20193;-78
2023/10/04 13:04:54;;;;;;;1.55;0.60;;;14.20;99.90;;;;;;5074818;28;20189;-84
2023/10/04 13:07:27;;;;;;;1.20;0.50;;;14.20;99.90;;;;;;5054212;28;20194;-87
2023/10/04 13:10:09;;;;;;;0.38;0.38;;;14.20;99.90;;;;;;5075249;28;20204;-83
2023/10/04 13:12:47;;;;;;;0.93;0.35;;;14.20;99.90;;;;;;5055326;28;20220;-85
2023/10/04 13:15:19;;;;;;;0.70;0.50;;;14.20;99.90;;;;;;5055214;28;20229;-79
2023/10/04 13:17:53;;;;;;;1.02;0.60;;;14.20;99.90;;;;;;5060402;28;20288;-75
2023/10/04 13:20:26;;;;;;;0.50;0.45;;;14.20;99.90;;;;;;5072532;28;20299;-82
2023/10/04 13:23:01;;;;;;;1.10;0.50;;;14.10;99.90;;;;;;5073645;28;20201;-77
2023/10/04 13:25:36;;;;;;;0.57;0.50;;;14.10;99.90;;;;;;5072946;28;20206;-88
2023/10/04 13:28:16;;;;;;;0.73;0.40;;;14.10;99.90;;;;;;5072761;28;20192;-85
2023/10/04 13:30:49;;;;;;;1.33;0.50;;;14.10;99.90;;;;;;5073868;28;20219;-85
2023/10/04 13:33:21;;;;;;;0.93;0.60;;;14.10;99.90;;;;;;5072794;28;20240;-83